createdAt,value
2017-07-21T00:00:35.637Z,0
2017-07-21T00:01:45.910Z,0
2017-07-21T00:02:56.185Z,0
2017-07-21T00:04:06.152Z,0
2017-07-21T00:05:16.426Z,0
2017-07-21T00:06:26.700Z,0
2017-07-21T00:07:36.973Z,0
2017-07-21T00:08:47.243Z,0
2017-07-21T00:09:57.517Z,0
2017-07-21T00:11:07.791Z,0
2017-07-21T00:12:18.065Z,0
2017-07-21T00:13:28.367Z,0
2017-07-21T00:14:38.322Z,0
2017-07-21T00:15:48.281Z,0
2017-07-21T00:16:58.237Z,0
2017-07-21T00:18:08.502Z,0
2017-07-21T00:19:18.783Z,0
2017-07-21T00:20:29.055Z,0
2017-07-21T00:21:39.329Z,0
2017-07-21T00:22:49.596Z,0
2017-07-21T00:23:59.870Z,0
2017-07-21T00:25:09.520Z,0
2017-07-21T00:26:19.800Z,0
2017-07-21T00:27:29.752Z,0
2017-07-21T00:28:40.021Z,0
2017-07-21T00:29:50.293Z,0
2017-07-21T00:31:00.566Z,0
2017-07-21T00:32:10.523Z,0
2017-07-21T00:33:20.799Z,0
2017-07-21T00:34:30.764Z,0
2017-07-21T00:35:40.723Z,0
2017-07-21T00:36:51.000Z,0
2017-07-21T00:38:01.294Z,0
2017-07-21T00:39:11.568Z,0
2017-07-21T00:40:21.528Z,0
2017-07-21T00:41:31.170Z,0
2017-07-21T00:42:41.449Z,0
2017-07-21T00:43:51.726Z,0
2017-07-21T00:45:01.679Z,0
2017-07-21T00:46:11.952Z,0
2017-07-21T00:47:21.906Z,0
2017-07-21T00:48:32.174Z,0
2017-07-21T00:49:42.443Z,0
2017-07-21T00:50:52.711Z,0
2017-07-21T00:52:02.666Z,0
2017-07-21T00:53:12.933Z,0
2017-07-21T00:54:23.203Z,0
2017-07-21T00:55:33.475Z,0
2017-07-21T00:56:43.748Z,0
2017-07-21T00:57:53.389Z,0
2017-07-21T00:59:03.343Z,0
2017-07-21T01:00:13.613Z,0
2017-07-21T01:01:23.888Z,0
2017-07-21T01:02:33.842Z,0
2017-07-21T01:03:43.807Z,0
2017-07-21T01:04:54.082Z,0
2017-07-21T01:06:04.352Z,0
2017-07-21T01:07:14.625Z,0
2017-07-21T01:08:24.900Z,0
2017-07-21T01:09:34.858Z,0
2017-07-21T01:10:44.814Z,0
2017-07-21T01:11:55.090Z,0
2017-07-21T01:13:05.362Z,0
2017-07-21T01:14:15.635Z,0
2017-07-21T01:15:25.601Z,0
2017-07-21T01:16:35.869Z,0
2017-07-21T01:17:46.140Z,0
2017-07-21T01:18:56.419Z,0
2017-07-21T01:20:06.696Z,0
2017-07-21T01:21:16.967Z,0
2017-07-21T01:22:27.242Z,0
2017-07-21T01:23:37.201Z,0
2017-07-21T01:24:47.480Z,0
2017-07-21T01:25:57.437Z,0
2017-07-21T01:27:07.714Z,0
2017-07-21T01:28:17.670Z,0
2017-07-21T01:29:27.630Z,0
2017-07-21T01:30:37.901Z,0
2017-07-21T01:31:48.184Z,0
2017-07-21T01:32:58.455Z,0
2017-07-21T01:34:08.732Z,0
2017-07-21T01:35:19.001Z,0
2017-07-21T01:36:29.272Z,0
2017-07-21T01:37:39.545Z,0
2017-07-21T01:38:49.817Z,0
2017-07-21T01:40:00.091Z,0
2017-07-21T01:41:10.364Z,0
2017-07-21T01:42:20.631Z,0
2017-07-21T01:43:30.591Z,0
2017-07-21T01:44:40.548Z,0
2017-07-21T01:45:50.817Z,0
2017-07-21T01:47:01.086Z,0
2017-07-21T01:48:11.359Z,0
2017-07-21T01:49:21.631Z,0
2017-07-21T01:50:31.615Z,0
2017-07-21T01:51:41.894Z,0
2017-07-21T01:52:52.168Z,0
2017-07-21T01:54:02.133Z,0
2017-07-21T01:55:12.093Z,0
2017-07-21T01:56:22.368Z,0
2017-07-21T01:57:32.325Z,0
2017-07-21T01:58:41.980Z,0
2017-07-21T01:59:51.940Z,0
2017-07-21T02:01:01.893Z,0
2017-07-21T02:02:12.160Z,0
2017-07-21T02:03:22.431Z,0
2017-07-21T02:04:32.387Z,0
2017-07-21T02:05:42.342Z,0
2017-07-21T02:06:52.296Z,0
2017-07-21T02:08:02.254Z,0
2017-07-21T02:09:12.523Z,0
2017-07-21T02:10:22.789Z,0
2017-07-21T02:11:33.058Z,0
2017-07-21T02:12:42.700Z,0
2017-07-21T02:13:52.967Z,5
2017-07-21T02:15:02.917Z,5
2017-07-21T02:16:12.873Z,5
2017-07-21T02:17:22.830Z,5
2017-07-21T02:18:33.102Z,5
2017-07-21T02:19:43.369Z,5
2017-07-21T02:20:53.637Z,5
2017-07-21T02:22:03.912Z,5
2017-07-21T02:23:13.565Z,5
2017-07-21T02:24:23.213Z,5
2017-07-21T02:25:33.483Z,10
2017-07-21T02:26:43.438Z,10
2017-07-21T02:27:53.708Z,10
2017-07-21T02:29:03.979Z,10
2017-07-21T02:30:14.252Z,10
2017-07-21T02:31:24.529Z,10
2017-07-21T02:32:34.798Z,10
2017-07-21T02:33:45.071Z,10
2017-07-21T02:34:55.349Z,15
2017-07-21T02:36:04.993Z,15
2017-07-21T02:37:15.266Z,15
2017-07-21T02:38:25.224Z,15
2017-07-21T02:39:35.528Z,20
2017-07-21T02:40:45.809Z,20
2017-07-21T02:41:56.081Z,20
2017-07-21T02:43:06.354Z,20
2017-07-21T02:44:16.313Z,20
2017-07-21T02:45:26.591Z,25
2017-07-21T02:46:36.875Z,25
2017-07-21T02:47:46.827Z,25
2017-07-21T02:48:56.786Z,25
2017-07-21T02:50:07.061Z,30
2017-07-21T02:51:17.335Z,30
2017-07-21T02:52:27.614Z,30
2017-07-21T02:53:37.569Z,30
2017-07-21T02:54:47.843Z,30
2017-07-21T02:55:58.129Z,35
2017-07-21T02:57:07.775Z,35
2017-07-21T02:58:18.050Z,35
2017-07-21T02:59:27.726Z,35
2017-07-21T03:00:37.999Z,40
2017-07-21T03:01:47.962Z,40
2017-07-21T03:02:58.234Z,40
2017-07-21T03:04:08.505Z,40
2017-07-21T03:05:18.779Z,40
2017-07-21T03:06:29.054Z,40
2017-07-21T03:07:39.011Z,40
2017-07-21T03:08:49.284Z,40
2017-07-21T03:09:59.554Z,45
2017-07-21T03:11:09.834Z,45
2017-07-21T03:12:20.112Z,45
2017-07-21T03:13:30.381Z,45
2017-07-21T03:14:40.653Z,50
2017-07-21T03:15:50.918Z,50
2017-07-21T03:17:00.870Z,50
2017-07-21T03:18:11.153Z,55
2017-07-21T03:19:21.427Z,55
2017-07-21T03:20:31.699Z,55
2017-07-21T03:21:41.654Z,55
2017-07-21T03:22:51.614Z,60
2017-07-21T03:24:01.892Z,60
2017-07-21T03:25:12.167Z,60
2017-07-21T03:26:22.444Z,60
2017-07-21T03:27:32.090Z,70
2017-07-21T03:28:42.369Z,65
2017-07-21T03:29:52.642Z,65
2017-07-21T03:31:02.941Z,65
2017-07-21T03:32:13.214Z,70
2017-07-21T03:33:23.489Z,70
2017-07-21T03:34:33.759Z,70
2017-07-21T03:35:44.031Z,70
2017-07-21T03:36:54.302Z,75
2017-07-21T03:38:04.576Z,75
2017-07-21T03:39:14.850Z,75
2017-07-21T03:40:25.119Z,80
2017-07-21T03:41:35.088Z,80
2017-07-21T03:42:47.074Z,80
2017-07-21T03:43:57.343Z,80
2017-07-21T03:45:07.300Z,85
2017-07-21T03:46:17.254Z,85
2017-07-21T03:47:27.207Z,85
2017-07-21T03:48:37.171Z,85
2017-07-21T03:49:47.134Z,85
2017-07-21T03:50:57.401Z,85
2017-07-21T03:52:07.673Z,85
2017-07-21T03:53:17.943Z,85
2017-07-21T03:54:28.215Z,90
2017-07-21T03:55:38.481Z,95
2017-07-21T03:56:48.747Z,90
2017-07-21T03:57:59.017Z,90
2017-07-21T03:59:09.303Z,90
2017-07-21T04:00:19.578Z,95
2017-07-21T04:01:29.855Z,95
2017-07-21T04:02:39.807Z,95
2017-07-21T04:03:50.074Z,95
2017-07-21T04:05:00.031Z,100
2017-07-21T04:06:10.300Z,100
2017-07-21T04:07:20.575Z,100
2017-07-21T04:08:30.847Z,100
2017-07-21T04:09:41.128Z,100
2017-07-21T04:10:51.395Z,105
2017-07-21T04:12:01.352Z,105
2017-07-21T04:13:11.621Z,105
2017-07-21T04:14:21.897Z,105
2017-07-21T04:15:32.171Z,105
2017-07-21T04:16:42.439Z,110
2017-07-21T04:17:52.711Z,110
2017-07-21T04:19:02.668Z,110
2017-07-21T04:20:12.627Z,110
2017-07-21T04:21:22.584Z,115
2017-07-21T04:22:32.543Z,115
2017-07-21T04:23:42.812Z,115
2017-07-21T04:24:52.773Z,115
2017-07-21T04:26:03.042Z,115
2017-07-21T04:27:13.316Z,115
2017-07-21T04:28:23.586Z,120
2017-07-21T04:29:33.867Z,120
2017-07-21T04:30:44.142Z,120
2017-07-21T04:31:54.095Z,115
2017-07-21T04:33:04.386Z,115
2017-07-21T04:34:14.343Z,120
2017-07-21T04:35:24.299Z,120
2017-07-21T04:36:34.573Z,120
2017-07-21T04:37:44.844Z,120
2017-07-21T04:38:55.116Z,120
2017-07-21T04:40:05.397Z,125
2017-07-21T04:41:15.667Z,125
2017-07-21T04:42:25.932Z,125
2017-07-21T04:43:35.891Z,125
2017-07-21T04:44:46.162Z,125
2017-07-21T04:45:56.433Z,125
2017-07-21T04:47:07.031Z,130
2017-07-21T04:48:17.302Z,130
2017-07-21T04:49:26.958Z,130
2017-07-21T04:50:37.234Z,130
2017-07-21T04:51:47.215Z,135
2017-07-21T04:52:57.499Z,130
2017-07-21T04:54:07.460Z,130
2017-07-21T04:55:17.748Z,135
2017-07-21T04:56:28.023Z,135
2017-07-21T04:57:38.292Z,135
2017-07-21T04:58:48.250Z,135
2017-07-21T04:59:57.575Z,135
2017-07-21T05:01:07.527Z,135
2017-07-21T05:02:17.793Z,135
2017-07-21T05:03:28.068Z,140
2017-07-21T05:04:38.488Z,140
2017-07-21T05:05:47.814Z,140
2017-07-21T05:06:58.083Z,140
2017-07-21T05:08:08.352Z,140
2017-07-21T05:09:18.306Z,140
2017-07-21T05:10:28.591Z,140
2017-07-21T05:11:38.858Z,140
2017-07-21T05:12:49.166Z,140
2017-07-21T05:13:59.434Z,145
2017-07-21T05:15:09.708Z,145
2017-07-21T05:16:19.984Z,145
2017-07-21T05:17:29.945Z,145
2017-07-21T05:18:40.218Z,145
2017-07-21T05:19:50.493Z,145
2017-07-21T05:21:00.451Z,145
2017-07-21T05:22:10.730Z,145
2017-07-21T05:23:21.003Z,145
2017-07-21T05:24:31.276Z,150
2017-07-21T05:25:41.546Z,150
2017-07-21T05:26:51.503Z,150
2017-07-21T05:28:01.772Z,150
2017-07-21T05:29:12.045Z,150
2017-07-21T05:30:22.010Z,150
2017-07-21T05:31:31.968Z,150
2017-07-21T05:32:42.238Z,150
2017-07-21T05:33:52.517Z,150
2017-07-21T05:35:02.826Z,155
2017-07-21T05:36:13.100Z,155
2017-07-21T05:37:23.377Z,155
2017-07-21T05:38:33.692Z,155
2017-07-21T05:39:43.964Z,155
2017-07-21T05:40:54.234Z,155
2017-07-21T05:42:04.506Z,155
2017-07-21T05:43:14.775Z,155
2017-07-21T05:44:25.049Z,155
2017-07-21T05:45:35.329Z,155
2017-07-21T05:46:45.602Z,155
2017-07-21T05:47:55.873Z,155
2017-07-21T05:49:06.150Z,160
2017-07-21T05:50:16.424Z,160
2017-07-21T05:51:26.693Z,165
2017-07-21T05:52:36.966Z,170
2017-07-21T05:53:47.237Z,175
2017-07-21T05:54:57.508Z,180
2017-07-21T05:56:07.789Z,180
2017-07-21T05:57:17.436Z,180
2017-07-21T05:58:27.710Z,175
2017-07-21T05:59:37.982Z,170
2017-07-21T06:00:48.262Z,165
2017-07-21T06:01:58.219Z,165
2017-07-21T06:03:11.712Z,160
2017-07-21T06:04:21.993Z,160
2017-07-21T06:05:32.262Z,160
2017-07-21T06:06:42.534Z,160
2017-07-21T06:07:52.495Z,160
2017-07-21T06:09:02.769Z,160
2017-07-21T06:10:12.822Z,160
2017-07-21T06:11:23.088Z,160
2017-07-21T06:12:33.046Z,165
2017-07-21T06:13:43.001Z,165
2017-07-21T06:14:53.275Z,165
2017-07-21T06:16:03.234Z,165
2017-07-21T06:17:13.190Z,170
2017-07-21T06:18:23.462Z,165
2017-07-21T06:19:33.420Z,165
2017-07-21T06:20:43.696Z,165
2017-07-21T06:21:53.970Z,165
2017-07-21T06:23:03.935Z,165
2017-07-21T06:24:13.904Z,165
2017-07-21T06:25:24.183Z,170
2017-07-21T06:26:34.143Z,170
2017-07-21T06:27:44.416Z,170
2017-07-21T06:28:54.059Z,170
2017-07-21T06:30:04.338Z,170
2017-07-21T06:31:14.294Z,170
2017-07-21T06:32:23.940Z,170
2017-07-21T06:33:34.213Z,175
2017-07-21T06:34:44.493Z,175
2017-07-21T06:35:54.137Z,175
2017-07-21T06:37:04.409Z,175
2017-07-21T06:38:14.372Z,175
2017-07-21T06:39:24.643Z,175
2017-07-21T06:40:34.913Z,180
2017-07-21T06:41:45.210Z,180
2017-07-21T06:42:55.164Z,180
2017-07-21T06:44:05.124Z,185
2017-07-21T06:45:15.407Z,185
2017-07-21T06:46:25.681Z,185
2017-07-21T06:47:35.959Z,185
2017-07-21T06:48:45.598Z,185
2017-07-21T06:49:55.875Z,175
2017-07-21T06:51:05.525Z,185
2017-07-21T06:52:15.164Z,185
2017-07-21T06:53:25.437Z,190
2017-07-21T06:54:35.711Z,200
2017-07-21T06:55:45.985Z,210
2017-07-21T06:56:56.259Z,235
2017-07-21T06:58:06.536Z,240
2017-07-21T06:59:16.499Z,245
2017-07-21T07:00:26.780Z,260
2017-07-21T07:01:37.063Z,250
2017-07-21T07:02:47.332Z,235
2017-07-21T07:03:57.290Z,230
2017-07-21T07:05:07.573Z,255
2017-07-21T07:06:17.853Z,235
2017-07-21T07:07:28.137Z,230
2017-07-21T07:08:38.410Z,255
2017-07-21T07:09:48.682Z,235
2017-07-21T07:10:58.954Z,235
2017-07-21T07:12:08.914Z,235
2017-07-21T07:13:19.190Z,245
2017-07-21T07:14:29.142Z,235
2017-07-21T07:15:39.419Z,240
2017-07-21T07:16:49.060Z,245
2017-07-21T07:17:59.341Z,240
2017-07-21T07:19:09.311Z,235
2017-07-21T07:20:19.269Z,240
2017-07-21T07:21:29.539Z,250
2017-07-21T07:22:39.814Z,220
2017-07-21T07:23:50.096Z,220
2017-07-21T07:25:00.061Z,215
2017-07-21T07:26:10.347Z,240
2017-07-21T07:27:20.306Z,225
2017-07-21T07:28:30.574Z,230
2017-07-21T07:29:40.532Z,230
2017-07-21T07:30:50.494Z,225
2017-07-21T07:32:00.772Z,220
2017-07-21T07:33:10.733Z,215
2017-07-21T07:34:20.379Z,235
2017-07-21T07:35:30.344Z,235
2017-07-21T07:36:40.309Z,250
2017-07-21T07:37:50.583Z,235
2017-07-21T07:39:00.858Z,245
2017-07-21T07:40:11.137Z,225
2017-07-21T07:41:21.418Z,220
2017-07-21T07:42:31.687Z,220
2017-07-21T07:43:41.647Z,235
2017-07-21T07:44:51.920Z,235
2017-07-21T07:46:01.564Z,245
2017-07-21T07:47:11.840Z,260
2017-07-21T07:48:22.115Z,290
2017-07-21T07:49:32.071Z,325
2017-07-21T07:50:42.042Z,380
2017-07-21T07:51:52.312Z,410
2017-07-21T07:53:02.597Z,385
2017-07-21T07:54:12.870Z,385
2017-07-21T07:55:22.511Z,400
2017-07-21T07:56:32.478Z,415
2017-07-21T07:57:42.750Z,410
2017-07-21T07:58:53.027Z,405
2017-07-21T08:00:02.675Z,400
2017-07-21T08:01:12.953Z,390
2017-07-21T08:02:23.267Z,375
2017-07-21T08:03:33.540Z,375
2017-07-21T08:04:43.817Z,355
2017-07-21T08:05:53.145Z,345
2017-07-21T08:07:03.424Z,330
2017-07-21T08:08:13.702Z,330
2017-07-21T08:09:23.664Z,320
2017-07-21T08:10:33.936Z,340
2017-07-21T08:11:44.207Z,330
2017-07-21T08:12:54.481Z,300
2017-07-21T08:14:04.459Z,305
2017-07-21T08:15:14.418Z,295
2017-07-21T08:16:24.691Z,290
2017-07-21T08:17:34.968Z,295
2017-07-21T08:18:45.240Z,270
2017-07-21T08:19:55.200Z,310
2017-07-21T08:21:05.474Z,330
2017-07-21T08:22:15.431Z,350
2017-07-21T08:23:25.703Z,360
2017-07-21T08:24:35.661Z,380
2017-07-21T08:25:45.624Z,380
2017-07-21T08:26:55.901Z,395
2017-07-21T08:28:06.173Z,410
2017-07-21T08:29:15.821Z,420
2017-07-21T08:30:26.095Z,425
2017-07-21T08:31:36.373Z,425
2017-07-21T08:32:46.334Z,445
2017-07-21T08:33:56.303Z,450
2017-07-21T08:35:06.260Z,460
2017-07-21T08:36:16.539Z,435
2017-07-21T08:37:26.818Z,390
2017-07-21T08:38:37.106Z,365
2017-07-21T08:39:47.387Z,350
2017-07-21T08:40:57.665Z,335
2017-07-21T08:42:07.305Z,330
2017-07-21T08:43:16.961Z,330
2017-07-21T08:44:27.236Z,340
2017-07-21T08:45:37.513Z,340
2017-07-21T08:46:47.782Z,350
2017-07-21T08:47:58.055Z,375
2017-07-21T08:49:08.329Z,390
2017-07-21T08:50:18.612Z,395
2017-07-21T08:51:28.573Z,395
2017-07-21T08:52:38.533Z,410
2017-07-21T08:53:48.810Z,450
2017-07-21T08:54:58.453Z,430
2017-07-21T08:56:08.100Z,450
2017-07-21T08:57:18.377Z,470
2017-07-21T08:58:28.649Z,470
2017-07-21T08:59:38.293Z,455
2017-07-21T09:00:47.941Z,455
2017-07-21T09:01:58.228Z,450
2017-07-21T09:03:08.201Z,460
2017-07-21T09:04:18.480Z,465
2017-07-21T09:05:28.748Z,490
2017-07-21T09:06:39.026Z,545
2017-07-21T09:07:49.309Z,545
2017-07-21T09:08:58.952Z,565
2017-07-21T09:10:09.232Z,565
2017-07-21T09:11:19.532Z,560
2017-07-21T09:12:29.806Z,545
2017-07-21T09:13:40.091Z,515
2017-07-21T09:14:50.062Z,505
2017-07-21T09:16:02.382Z,490
2017-07-21T09:17:12.378Z,480
2017-07-21T09:18:22.341Z,470
2017-07-21T09:19:32.616Z,460
2017-07-21T09:20:42.582Z,455
2017-07-21T09:21:52.854Z,455
2017-07-21T09:23:02.814Z,460
2017-07-21T09:24:13.109Z,465
2017-07-21T09:25:23.387Z,475
2017-07-21T09:26:33.031Z,435
2017-07-21T09:27:43.000Z,410
2017-07-21T09:28:52.958Z,390
2017-07-21T09:30:02.919Z,365
2017-07-21T09:31:12.880Z,365
2017-07-21T09:32:23.153Z,365
2017-07-21T09:33:33.581Z,370
2017-07-21T09:34:43.547Z,370
2017-07-21T09:35:53.843Z,400
2017-07-21T09:37:04.122Z,360
2017-07-21T09:38:14.402Z,365
2017-07-21T09:39:24.675Z,340
2017-07-21T09:40:34.950Z,335
2017-07-21T09:41:45.228Z,325
2017-07-21T09:42:55.505Z,325
2017-07-21T09:44:05.796Z,315
2017-07-21T09:45:16.081Z,315
2017-07-21T09:46:26.042Z,310
2017-07-21T09:47:36.010Z,310
2017-07-21T09:48:46.288Z,310
2017-07-21T09:49:56.562Z,310
2017-07-21T09:51:05.903Z,310
2017-07-21T09:52:16.180Z,305
2017-07-21T09:53:26.142Z,305
2017-07-21T09:54:35.791Z,310
2017-07-21T09:55:46.078Z,310
2017-07-21T09:56:56.040Z,315
2017-07-21T09:58:06.315Z,320
2017-07-21T09:59:16.278Z,325
2017-07-21T10:00:26.554Z,330
2017-07-21T10:01:36.832Z,340
2017-07-21T10:02:47.109Z,355
2017-07-21T10:03:56.756Z,375
2017-07-21T10:05:07.066Z,390
2017-07-21T10:06:17.353Z,395
2017-07-21T10:07:27.629Z,395
2017-07-21T10:08:37.912Z,385
2017-07-21T10:09:47.872Z,375
2017-07-21T10:10:57.866Z,385
2017-07-21T10:12:07.822Z,390
2017-07-21T10:13:17.467Z,395
2017-07-21T10:14:27.741Z,380
2017-07-21T10:15:38.015Z,380
2017-07-21T10:16:47.987Z,395
2017-07-21T10:17:57.977Z,395
2017-07-21T10:19:07.629Z,355
2017-07-21T10:20:17.901Z,405
2017-07-21T10:21:28.174Z,410
2017-07-21T10:22:38.458Z,430
2017-07-21T10:23:48.733Z,455
2017-07-21T10:24:58.699Z,410
2017-07-21T10:26:08.972Z,455
2017-07-21T10:27:18.317Z,415
2017-07-21T10:28:28.279Z,395
2017-07-21T10:29:38.563Z,405
2017-07-21T10:30:48.528Z,390
2017-07-21T10:31:58.491Z,380
2017-07-21T10:33:08.454Z,385
2017-07-21T10:34:18.417Z,385
2017-07-21T10:35:28.698Z,385
2017-07-21T10:36:38.975Z,395
2017-07-21T10:37:48.933Z,410
2017-07-21T10:38:58.894Z,385
2017-07-21T10:40:08.545Z,330
2017-07-21T10:41:18.829Z,375
2017-07-21T10:42:29.103Z,320
2017-07-21T10:43:39.378Z,295
2017-07-21T10:44:49.340Z,315
2017-07-21T10:45:59.299Z,330
2017-07-21T10:47:09.591Z,380
2017-07-21T10:48:19.883Z,315
2017-07-21T10:49:30.160Z,360
2017-07-21T10:50:40.439Z,360
2017-07-21T10:51:50.718Z,360
2017-07-21T10:53:01.017Z,330
2017-07-21T10:54:11.298Z,305
2017-07-21T10:55:20.946Z,310
2017-07-21T10:56:30.936Z,345
2017-07-21T10:57:40.903Z,400
2017-07-21T10:58:50.554Z,435
2017-07-21T11:00:00.833Z,430
2017-07-21T11:01:11.107Z,420
2017-07-21T11:02:21.384Z,410
2017-07-21T11:03:31.664Z,400
2017-07-21T11:04:41.939Z,390
2017-07-21T11:05:52.217Z,395
2017-07-21T11:07:01.864Z,405
2017-07-21T11:08:11.842Z,425
2017-07-21T11:09:22.114Z,430
2017-07-21T11:10:32.080Z,440
2017-07-21T11:11:42.042Z,445
2017-07-21T11:12:52.007Z,445
2017-07-21T11:14:02.177Z,440
2017-07-21T11:15:11.824Z,440
2017-07-21T11:16:22.102Z,445
2017-07-21T11:17:32.384Z,440
2017-07-21T11:18:42.663Z,455
2017-07-21T11:19:52.933Z,450
2017-07-21T11:21:02.910Z,440
2017-07-21T11:22:12.869Z,415
2017-07-21T11:23:22.855Z,390
2017-07-21T11:24:33.161Z,355
2017-07-21T11:25:43.119Z,335
2017-07-21T11:26:53.394Z,315
2017-07-21T11:28:03.669Z,320
2017-07-21T11:29:13.322Z,325
2017-07-21T11:30:23.282Z,310
2017-07-21T11:31:32.619Z,310
2017-07-21T11:32:42.895Z,320
2017-07-21T11:33:53.169Z,325
2017-07-21T11:35:03.133Z,330
2017-07-21T11:36:12.779Z,330
2017-07-21T11:37:22.748Z,330
2017-07-21T11:38:33.025Z,330
2017-07-21T11:39:43.298Z,325
2017-07-21T11:40:53.576Z,335
2017-07-21T11:42:03.848Z,350
2017-07-21T11:43:13.815Z,380
2017-07-21T11:44:23.787Z,430
2017-07-21T11:45:34.061Z,485
2017-07-21T11:46:44.033Z,530
2017-07-21T11:47:53.993Z,560
2017-07-21T11:49:04.275Z,575
2017-07-21T11:50:14.235Z,570
2017-07-21T11:51:24.512Z,565
2017-07-21T11:52:34.794Z,545
2017-07-21T11:53:45.084Z,525
2017-07-21T11:54:55.361Z,500
2017-07-21T11:56:05.641Z,465
2017-07-21T11:57:15.604Z,440
2017-07-21T11:58:25.887Z,415
2017-07-21T11:59:36.161Z,375
2017-07-21T12:00:46.454Z,365
2017-07-21T12:01:56.736Z,365
2017-07-21T12:03:06.385Z,375
2017-07-21T12:04:16.666Z,405
2017-07-21T12:05:26.635Z,435
2017-07-21T12:06:36.596Z,460
2017-07-21T12:07:46.876Z,495
2017-07-21T12:08:57.177Z,525
2017-07-21T12:10:07.144Z,570
2017-07-21T12:11:17.421Z,590
2017-07-21T12:12:27.704Z,595
2017-07-21T12:13:38.037Z,605
2017-07-21T12:14:48.006Z,620
2017-07-21T12:15:58.306Z,650
2017-07-21T12:17:08.582Z,695
2017-07-21T12:18:18.870Z,735
2017-07-21T12:19:29.149Z,770
2017-07-21T12:20:38.799Z,800
2017-07-21T12:21:49.082Z,835
2017-07-21T12:22:59.369Z,840
2017-07-21T12:24:09.330Z,830
2017-07-21T12:25:18.976Z,830
2017-07-21T12:26:29.258Z,825
2017-07-21T12:27:39.542Z,820
2017-07-21T12:28:49.819Z,820
2017-07-21T12:30:00.097Z,820
2017-07-21T12:31:10.060Z,845
2017-07-21T12:32:19.728Z,885
2017-07-21T12:33:30.003Z,925
2017-07-21T12:34:39.962Z,965
2017-07-21T12:35:50.261Z,980
2017-07-21T12:37:00.554Z,1085
2017-07-21T12:38:10.518Z,1285
2017-07-21T12:39:20.483Z,3035
2017-07-21T12:40:30.759Z,2725
2017-07-21T12:41:41.040Z,2395
2017-07-21T12:42:51.318Z,1140
2017-07-21T12:44:01.596Z,2310
2017-07-21T12:45:11.572Z,2690
2017-07-21T12:46:21.541Z,3020
2017-07-21T12:47:31.836Z,3040
2017-07-21T12:48:41.800Z,2635
2017-07-21T12:49:52.079Z,2545
2017-07-21T12:51:02.369Z,2625
2017-07-21T12:52:12.652Z,2690
2017-07-21T12:53:22.932Z,2665
2017-07-21T12:54:33.216Z,2145
2017-07-21T12:55:43.195Z,1885
2017-07-21T12:56:53.172Z,1375
2017-07-21T12:58:03.151Z,1175
2017-07-21T12:59:12.804Z,755
2017-07-21T13:00:23.087Z,850
2017-07-21T13:01:33.369Z,1015
2017-07-21T13:02:43.351Z,750
2017-07-21T13:03:53.633Z,775
2017-07-21T13:05:03.628Z,605
2017-07-21T13:06:13.599Z,560
2017-07-21T13:07:23.568Z,540
2017-07-21T13:08:33.852Z,515
2017-07-21T13:09:43.506Z,520
2017-07-21T13:10:53.810Z,605
2017-07-21T13:12:04.089Z,2150
2017-07-21T13:13:14.059Z,2015
2017-07-21T13:14:24.337Z,1730
2017-07-21T13:15:34.617Z,1350
2017-07-21T13:16:44.898Z,1440
2017-07-21T13:17:54.875Z,1435
2017-07-21T13:19:05.161Z,1900
2017-07-21T13:20:15.441Z,1450
2017-07-21T13:21:25.739Z,660
2017-07-21T13:22:36.018Z,570
2017-07-21T13:23:46.307Z,620
2017-07-21T13:24:56.289Z,1035
2017-07-21T13:26:06.571Z,1050
2017-07-21T13:27:16.853Z,730
2017-07-21T13:28:27.133Z,1270
2017-07-21T13:29:36.784Z,1505
2017-07-21T13:30:46.756Z,1610
2017-07-21T13:31:57.044Z,1650
2017-07-21T13:33:07.008Z,1345
2017-07-21T13:34:16.980Z,1110
2017-07-21T13:35:27.263Z,1185
2017-07-21T13:36:37.229Z,2240
2017-07-21T13:37:47.611Z,2180
2017-07-21T13:38:57.587Z,3150
2017-07-21T13:40:07.566Z,1995
2017-07-21T13:41:17.529Z,1485
2017-07-21T13:42:27.807Z,1260
2017-07-21T13:43:38.084Z,1515
2017-07-21T13:44:48.367Z,2325
2017-07-21T13:45:58.346Z,2100
2017-07-21T13:47:08.635Z,1870
2017-07-21T13:48:18.923Z,1195
2017-07-21T13:49:29.205Z,1065
2017-07-21T13:50:39.480Z,720
2017-07-21T13:51:49.757Z,685
2017-07-21T13:53:00.037Z,775
2017-07-21T13:54:10.318Z,945
2017-07-21T13:55:20.603Z,1180
2017-07-21T13:56:30.894Z,1690
2017-07-21T13:57:41.174Z,1935
2017-07-21T13:58:51.459Z,2815
2017-07-21T14:00:01.743Z,3725
2017-07-21T14:01:11.707Z,3135
2017-07-21T14:02:21.984Z,3290
2017-07-21T14:03:32.263Z,2145
2017-07-21T14:04:41.921Z,2475
2017-07-21T14:05:52.202Z,3300
2017-07-21T14:07:02.172Z,3540
2017-07-21T14:08:12.467Z,3450
2017-07-21T14:09:22.433Z,3340
2017-07-21T14:10:32.725Z,3260
2017-07-21T14:11:43.008Z,3005
2017-07-21T14:12:53.293Z,3270
2017-07-21T14:14:03.259Z,3325
2017-07-21T14:15:13.546Z,2660
2017-07-21T14:16:23.835Z,2525
2017-07-21T14:17:33.827Z,2240
2017-07-21T14:18:43.800Z,2625
2017-07-21T14:19:53.779Z,2555
2017-07-21T14:21:03.746Z,3070
2017-07-21T14:22:14.025Z,3115
2017-07-21T14:23:24.312Z,2860
2017-07-21T14:24:34.288Z,3055
2017-07-21T14:25:44.569Z,3050
2017-07-21T14:26:54.861Z,3225
2017-07-21T14:28:04.834Z,3055
2017-07-21T14:29:14.807Z,3070
2017-07-21T14:30:24.781Z,2940
2017-07-21T14:31:35.064Z,2990
2017-07-21T14:32:45.350Z,2955
2017-07-21T14:33:55.640Z,2930
2017-07-21T14:35:05.925Z,2940
2017-07-21T14:36:16.217Z,2745
2017-07-21T14:37:26.497Z,2950
2017-07-21T14:38:36.783Z,3050
2017-07-21T14:39:47.076Z,3075
2017-07-21T14:40:57.048Z,3090
2017-07-21T14:42:07.335Z,3110
2017-07-21T14:43:17.624Z,3025
2017-07-21T14:44:27.913Z,2870
2017-07-21T14:45:38.200Z,3035
2017-07-21T14:46:48.483Z,2895
2017-07-21T14:47:58.766Z,2850
2017-07-21T14:49:09.056Z,2780
2017-07-21T14:50:19.337Z,2705
2017-07-21T14:51:29.319Z,3010
2017-07-21T14:52:39.604Z,2975
2017-07-21T14:53:49.576Z,2790
2017-07-21T14:54:59.862Z,2395
2017-07-21T14:56:09.828Z,2825
2017-07-21T14:57:19.802Z,2755
2017-07-21T14:58:30.091Z,2900
2017-07-21T14:59:40.383Z,2805
2017-07-21T15:00:50.663Z,2835
2017-07-21T15:02:00.635Z,2885
2017-07-21T15:03:10.926Z,2870
2017-07-21T15:04:21.215Z,2770
2017-07-21T15:05:30.880Z,2730
2017-07-21T15:06:41.161Z,2735
2017-07-21T15:07:51.134Z,2770
2017-07-21T15:09:01.420Z,2725
2017-07-21T15:10:11.716Z,2705
2017-07-21T15:11:21.688Z,2530
2017-07-21T15:12:31.980Z,2740
2017-07-21T15:13:41.951Z,2870
2017-07-21T15:14:51.921Z,2755
2017-07-21T15:16:02.228Z,2765
2017-07-21T15:17:12.516Z,2770
2017-07-21T15:18:22.811Z,2815
2017-07-21T15:19:32.782Z,2710
2017-07-21T15:20:43.066Z,2650
2017-07-21T15:21:53.350Z,2710
2017-07-21T15:23:03.640Z,2705
2017-07-21T15:24:13.619Z,2685
2017-07-21T15:25:23.909Z,2670
2017-07-21T15:26:33.891Z,2595
2017-07-21T15:27:44.172Z,2640
2017-07-21T15:28:54.144Z,2765
2017-07-21T15:30:03.814Z,2660
2017-07-21T15:31:14.103Z,2535
2017-07-21T15:32:24.071Z,2585
2017-07-21T15:33:34.045Z,2595
2017-07-21T15:34:44.337Z,2595
2017-07-21T15:35:54.624Z,2565
2017-07-21T15:37:04.597Z,2135
2017-07-21T15:38:14.886Z,2425
2017-07-21T15:39:25.175Z,2530
2017-07-21T15:40:35.465Z,2105
2017-07-21T15:41:45.750Z,2410
2017-07-21T15:42:56.057Z,2475
2017-07-21T15:44:06.377Z,2575
2017-07-21T15:45:16.664Z,2560
2017-07-21T15:46:26.633Z,2465
2017-07-21T15:47:36.286Z,2415
2017-07-21T15:48:46.254Z,2485
2017-07-21T15:49:56.545Z,2435
2017-07-21T15:51:06.837Z,2385
2017-07-21T15:52:17.125Z,2400
2017-07-21T15:53:27.100Z,2440
2017-07-21T15:54:37.396Z,2440
2017-07-21T15:55:47.682Z,2460
2017-07-21T15:56:57.965Z,2090
2017-07-21T15:58:07.624Z,1610
2017-07-21T15:59:17.598Z,1365
2017-07-21T16:00:27.884Z,1250
2017-07-21T16:01:38.172Z,1595
2017-07-21T16:02:48.463Z,1560
2017-07-21T16:03:58.438Z,1510
2017-07-21T16:05:08.728Z,1375
2017-07-21T16:06:18.704Z,1135
2017-07-21T16:07:28.675Z,1445
2017-07-21T16:08:38.958Z,1225
2017-07-21T16:09:48.922Z,750
2017-07-21T16:10:59.207Z,730
2017-07-21T16:12:09.177Z,1275